Date,TemperatureHighF,TemperatureAvgF,TemperatureLowF,DewpointHighF,DewpointAvgF,DewpointLowF,HumidityHigh,HumidityAvg,HumidityLow,PressureMaxIn,PressureMinIn,WindSpeedMaxMPH,WindSpeedAvgMPH,GustSpeedMaxMPH,PrecipitationSumIn
2013-1-1,50.4,40.9,35.8,47.3,36.4,30.6,98,85,51,29.75,29.25,8,-196,8,0.00
2013-1-2,50.5,43.2,34.0,50.0,42.2,33.1,98,96,85,30.04,29.75,5,-205,5,0.00
2013-1-3,53.2,50.6,47.8,50.0,48.9,47.3,98,94,85,30.31,30.04,5,-290,6,0.00
2013-1-4,52.9,49.1,46.4,47.3,44.5,40.6,96,84,66,30.34,30.28,8,-352,8,0.00
2013-1-5,51.6,48.4,46.4,50.2,46.8,45.3,98,94,82,30.31,30.22,5,-376,6,0.00
2013-1-13,34.2,32.1,30.7,27.1,25.9,24.1,80,78,74,29.87,29.81,0,-999,1,0.00
2013-1-14,35.8,32.8,30.7,35.2,30.8,25.9,98,92,80,29.81,29.34,0,-999,0,0.00
2013-1-15,35.1,33.9,32.7,32.7,31.4,30.4,96,90,84,29.57,29.34,0,-999,0,0.00
2013-1-16,24.6,23.9,22.8,24.1,23.4,22.3,98,98,98,29.75,29.72,0,-999,0,0.00
2013-1-17,43.0,31.0,20.5,38.8,26.5,19.9,98,84,65,29.81,29.60,0,-995,0,0.00
2013-1-18,34.7,30.9,28.6,27.7,25.6,22.6,89,81,65,29.60,29.19,0,-999,0,0.00
2013-1-19,34.3,31.7,30.2,32.0,28.2,23.5,98,87,75,29.25,29.13,0,-999,0,0.00
2013-1-20,34.5,31.0,28.8,29.8,27.7,23.2,98,87,74,29.22,29.01,0,-999,0,0.00
2013-1-21,40.3,31.7,21.4,33.6,28.5,19.4,98,88,68,29.25,29.01,0,-999,0,0.00
2013-1-22,39.9,30.8,19.6,37.4,27.9,18.0,98,90,72,29.42,29.25,0,-999,0,0.00
2013-1-23,36.1,34.5,33.3,32.4,30.2,28.2,93,84,76,29.54,29.42,0,-999,0,0.00
2013-1-24,36.0,33.8,27.7,30.9,27.3,21.7,91,77,63,29.84,29.54,0,-999,0,0.00
2013-1-25,36.9,33.1,24.3,35.2,27.1,20.3,96,79,63,29.84,29.31,0,-999,0,0.00
2013-1-26,50.5,41.1,35.1,44.1,37.4,33.8,98,88,55,29.54,29.28,0,-999,0,0.00
2013-1-27,52.7,46.0,36.9,49.3,36.9,25.2,98,73,39,29.34,29.01,0,-999,0,0.00
2013-1-28,50.7,42.7,33.6,49.1,39.2,32.5,98,88,69,29.54,29.25,0,-999,0,0.00
2013-1-29,56.1,52.4,48.2,54.5,50.4,43.0,98,93,76,29.36,29.28,0,-999,0,0.00
2013-1-30,55.6,49.4,43.0,53.1,40.7,30.7,98,75,42,29.75,29.25,0,-999,0,0.00
2013-1-31,53.1,47.5,43.3,43.5,37.3,31.1,88,69,48,29.75,29.51,0,-999,0,0.00
2013-2-1,49.1,41.4,35.4,41.9,37.5,30.7,98,86,64,29.57,29.19,0,-999,0,0.00
2013-2-2,45.1,37.3,27.0,39.2,26.9,19.4,98,67,44,29.96,29.34,0,-999,0,0.00
2013-2-3,47.7,39.5,27.1,46.4,35.5,21.0,97,86,76,29.96,29.63,0,-999,0,0.00
2013-2-4,54.1,47.6,41.4,46.9,35.6,25.0,96,66,37,29.66,29.45,0,-999,0,0.00
2013-2-5,46.9,39.5,34.2,38.8,28.6,18.9,95,67,39,29.42,29.07,0,-999,0,0.00
2013-2-6,46.8,39.3,34.2,38.3,29.9,22.6,91,70,50,29.75,29.10,0,-999,0,0.00
2013-2-7,46.9,36.9,32.4,32.9,26.1,21.2,96,66,41,29.81,29.69,0,-999,0,0.00
2013-2-8,48.0,37.1,29.7,37.6,30.8,24.8,98,80,42,29.87,29.75,0,-999,0,0.00
2013-2-9,39.7,36.6,32.7,36.3,33.4,28.8,97,88,79,29.87,29.57,0,-999,0,0.00
2013-2-10,41.0,37.4,32.7,40.3,36.7,32.2,98,97,93,29.57,29.01,0,-999,0,0.00
2013-2-11,36.5,33.8,32.7,35.8,33.1,32.2,98,97,92,29.48,29.04,0,-999,0,0.00
2013-2-12,36.7,33.9,32.4,32.7,28.7,25.3,98,81,70,29.84,29.48,0,-999,0,0.00
2013-2-13,38.5,34.8,32.5,37.9,26.2,17.1,98,72,45,29.90,29.69,0,-999,0,0.00
2013-2-14,55.2,45.6,35.4,48.6,39.8,33.1,98,82,51,29.69,29.45,0,-999,0,0.00
2013-2-15,55.8,41.4,32.2,47.1,34.3,29.1,98,78,44,29.90,29.69,0,-999,0,0.00
2013-2-16,56.7,43.5,32.5,44.6,32.9,25.5,98,69,38,29.96,29.90,0,-999,0,0.00
2013-2-17,56.8,39.9,31.3,45.3,33.5,25.2,98,81,32,29.93,29.81,0,-999,0,0.00
2013-2-18,53.6,39.9,31.3,39.9,33.3,28.0,98,80,41,29.87,29.81,0,-999,0,0.00
2013-2-19,58.6,38.2,24.3,45.7,29.4,23.5,98,75,36,29.84,29.75,0,-999,0,0.00
2013-2-20,46.6,37.3,33.6,37.9,28.6,20.8,98,73,42,29.96,29.81,0,-999,0,0.00
2013-2-21,36.3,34.2,32.5,22.3,17.7,14.4,59,50,43,29.96,29.87,0,-999,0,0.00
2013-2-22,37.0,33.4,31.5,21.6,17.8,14.9,62,53,44,29.87,29.81,0,-999,0,0.00
2013-2-23,38.7,33.5,30.9,28.0,22.3,16.7,81,64,44,29.93,29.78,0,-999,0,0.00
2013-2-24,36.7,33.9,31.6,28.8,25.5,22.5,85,71,61,29.99,29.90,0,-999,0,0.00
2013-2-25,40.3,37.0,34.0,36.3,33.0,26.6,93,86,73,30.07,29.96,0,-999,0,0.00
2013-2-26,40.5,38.3,36.0,39.7,37.3,34.2,98,96,90,30.25,30.07,0,-999,0,0.00
2013-2-27,48.6,38.0,34.9,36.9,32.6,27.5,98,83,49,30.28,30.19,0,-999,0,0.00
2013-2-28,50.4,40.1,33.8,35.2,31.9,27.0,94,75,42,30.19,30.04,0,-999,0,0.00
2013-3-1,45.9,40.1,35.6,42.4,31.5,24.3,98,73,49,30.10,30.04,0,-999,0,0.00
2013-3-2,43.3,34.8,25.3,31.3,26.6,22.5,89,72,51,30.10,29.99,0,-999,0,0.00
2013-3-3,50.7,38.1,24.6,39.4,30.4,22.3,97,76,43,29.99,29.81,0,-999,0,0.00
2013-3-4,56.3,41.7,33.1,34.9,30.6,24.3,97,68,34,29.81,29.45,0,-999,0,0.00
2013-3-5,67.6,47.4,31.1,49.6,35.1,29.7,98,68,33,29.45,29.31,0,-999,0,0.00
2013-3-6,58.1,49.9,44.8,41.9,38.1,35.8,85,65,47,29.31,29.25,0,-999,0,0.00
2013-3-7,51.6,47.6,44.4,48.7,46.2,41.5,98,95,86,29.25,29.10,0,-999,0,0.00
2013-3-8,51.4,48.2,45.1,50.9,47.7,44.6,98,98,98,29.28,29.10,0,-999,0,0.00
2013-3-9,45.7,42.1,37.0,44.6,40.4,33.8,98,94,87,29.39,29.28,0,-999,0,0.00
2013-3-10,39.2,36.0,32.7,34.0,30.5,24.8,92,81,70,29.45,29.36,0,-999,0,0.00
2013-3-11,35.1,31.3,27.5,25.7,18.0,11.3,75,58,40,29.48,29.42,0,-999,0,0.00
2013-3-12,45.9,34.1,27.3,30.2,18.5,10.8,82,54,31,29.54,29.45,0,-999,0,0.00
2013-3-13,51.8,37.6,28.2,30.0,25.6,19.6,90,65,36,29.66,29.48,0,-999,0,0.00
2013-3-14,54.3,38.2,26.6,39.6,23.6,16.0,98,62,31,29.72,29.63,0,-999,0,0.00
2013-3-15,50.7,42.5,36.5,43.5,37.0,20.8,98,82,52,29.63,29.28,0,-999,0,0.00
2013-3-16,54.3,44.2,40.3,44.4,40.0,33.6,98,86,53,29.28,29.01,0,-999,0,0.00
2013-3-17,48.0,39.9,30.6,43.7,37.2,30.0,98,90,73,29.04,28.89,0,-999,0,0.00
2013-3-18,54.1,37.3,27.1,46.9,35.3,26.6,98,93,59,29.10,28.95,0,-999,0,0.00
2013-3-19,54.0,40.1,33.3,41.9,34.3,25.9,98,83,41,29.25,29.10,0,-999,0,0.00
2013-3-20,48.0,38.9,33.4,40.8,35.1,31.8,98,87,66,29.72,29.25,0,-999,0,0.00
2013-3-21,46.0,38.8,30.6,33.6,29.3,24.6,95,70,49,29.75,29.63,0,-999,0,0.00
2013-3-22,43.9,38.3,35.2,35.8,32.1,29.1,96,79,57,29.63,29.45,0,-999,0,0.00
2013-3-23,36.5,34.1,33.1,35.4,33.3,32.4,98,97,92,29.60,29.45,0,-999,0,0.00
2013-3-24,33.4,32.1,31.1,32.5,26.4,18.7,98,80,54,29.66,29.57,0,-999,0,0.00
2013-3-25,34.9,33.3,31.8,24.3,20.1,17.8,70,58,53,29.69,29.63,0,-999,0,0.00
2013-3-26,36.3,33.6,30.7,24.8,19.6,16.3,77,56,45,29.66,29.60,0,-999,0,0.00
2013-3-27,46.0,35.0,29.5,25.7,20.4,16.9,80,57,38,29.60,29.57,0,-999,0,0.00
2013-3-28,46.6,36.1,29.3,30.4,21.8,16.0,91,58,39,29.66,29.54,0,-999,0,0.00
2013-3-29,53.1,37.1,25.2,27.0,19.6,15.1,75,51,28,29.63,29.48,0,-999,0,0.00
2013-3-30,48.0,37.1,29.5,28.4,23.4,18.9,75,58,39,29.69,29.48,0,-999,0,0.00
2013-3-31,48.2,35.7,22.5,34.2,21.2,16.3,93,59,34,29.69,29.60,0,-999,0,0.00
2013-4-1,48.7,36.9,30.6,27.3,22.5,15.4,77,58,34,29.60,29.54,0,-999,0,0.00
2013-4-2,54.9,39.8,29.7,30.0,20.8,10.6,87,51,26,29.78,29.60,0,-999,0,0.00
2013-4-3,47.7,37.2,31.1,30.9,21.7,15.8,89,56,33,29.78,29.69,0,-999,0,0.00
2013-4-4,41.7,35.5,32.2,32.5,24.7,15.6,84,66,42,29.72,29.63,0,-999,0,0.00
2013-4-5,52.7,39.8,34.0,29.7,22.8,15.1,80,53,28,29.81,29.60,0,-999,0,0.00
2013-4-6,60.8,42.7,29.5,37.4,25.1,14.4,95,56,25,29.99,29.81,0,-999,0,0.00
2013-4-7,59.9,41.9,24.3,36.3,22.2,15.6,85,49,25,29.99,29.60,0,-999,0,0.00
2013-4-8,57.9,44.5,37.4,31.3,26.0,19.6,75,50,28,29.60,29.28,0,-999,0,0.00
2013-4-9,54.3,43.3,36.1,40.8,35.9,31.3,93,76,47,29.28,29.13,0,-999,0,0.00
2013-4-10,61.9,46.6,36.3,42.6,35.6,30.0,98,70,35,29.42,29.19,0,-999,0,0.00
2013-4-11,59.9,46.8,41.7,47.3,43.1,41.2,98,88,54,29.22,29.10,0,-999,0,0.00
2013-4-12,59.5,48.5,43.0,51.1,44.4,38.1,98,87,52,29.45,29.01,0,-999,0,0.00
2013-4-13,57.4,47.9,35.4,51.4,44.8,34.9,98,90,48,29.60,29.45,0,-999,0,0.00
2013-4-14,72.9,59.6,51.1,53.1,46.5,40.1,98,66,33,29.66,29.60,0,-999,0,0.00
2013-4-15,67.3,55.5,49.1,48.7,43.7,38.1,91,67,41,29.78,29.63,0,-999,0,0.00
2013-4-16,66.6,55.5,48.6,50.4,41.8,34.3,98,64,33,29.78,29.60,0,-999,0,0.00
2013-4-17,69.3,56.4,47.3,53.6,46.7,41.0,98,74,42,29.78,29.48,0,-999,0,0.00
2013-4-18,61.7,51.9,44.8,44.6,34.5,25.5,72,53,33,29.78,29.48,0,-999,0,0.00
2013-4-19,61.9,49.5,40.6,43.5,35.2,29.3,86,61,34,30.19,29.78,0,-999,0,0.00
2013-4-20,67.3,49.0,31.6,46.8,30.0,22.1,98,56,23,30.25,30.07,0,-999,0,0.00
2013-4-21,68.7,48.7,28.4,44.2,29.7,24.3,95,53,24,30.04,29.72,0,-999,0,0.00
2013-4-22,65.8,51.7,41.7,48.4,40.4,32.7,96,69,34,29.75,29.66,0,-999,0,0.00
2013-4-23,74.8,60.9,47.8,54.7,44.5,38.8,98,61,31,29.93,29.69,0,-999,0,0.00
2013-4-24,75.4,59.9,45.5,52.7,47.2,43.2,98,66,36,29.96,29.90,0,-999,0,0.00
2013-4-25,77.4,61.7,49.6,58.5,47.9,41.0,98,66,31,29.96,29.72,0,-999,0,0.00
2013-4-26,65.3,50.6,38.3,46.9,34.3,19.8,97,59,27,29.75,29.60,0,-999,0,0.00
2013-4-27,59.2,45.1,35.6,38.1,31.7,24.4,89,61,35,29.81,29.60,0,-999,0,0.00
2013-4-28,60.6,46.4,29.5,45.5,29.6,23.5,98,57,28,29.81,29.60,0,-999,0,0.00
2013-4-29,64.9,51.5,38.8,43.5,32.1,23.5,91,52,28,29.87,29.60,0,-999,0,0.00
2013-4-30,68.0,51.6,36.9,41.7,32.4,24.6,89,52,25,30.01,29.87,0,-999,0,0.00
2013-5-1,71.6,52.6,35.4,45.1,32.1,20.3,98,54,22,30.01,29.87,0,-999,0,0.00
2013-5-2,73.4,55.5,36.9,29.1,24.5,20.1,57,34,16,29.93,29.87,0,-999,0,0.00
2013-5-3,75.7,56.7,34.3,42.6,33.2,24.4,87,46,22,29.90,29.75,0,-999,0,0.00
2013-5-4,70.7,55.5,42.6,47.7,37.6,30.0,90,55,25,29.84,29.69,0,-999,0,0.00
2013-5-5,75.2,58.5,40.3,48.2,41.5,33.8,90,56,32,29.90,29.84,0,-999,0,0.00
2013-5-6,84.7,64.6,49.3,52.2,42.1,32.7,86,49,23,29.90,29.78,0,-999,0,0.00
2013-5-7,81.0,61.8,41.0,50.0,37.8,31.8,93,46,22,29.81,29.60,0,-999,0,0.00
2013-5-8,68.4,57.2,47.3,57.6,47.5,39.4,96,71,40,29.57,29.42,0,-999,0,0.00
2013-5-9,63.1,51.6,42.3,49.1,39.8,31.3,98,68,35,29.54,29.39,0,-999,0,0.00
2013-5-10,68.7,55.6,48.2,51.8,44.4,35.8,98,69,33,29.63,29.39,0,-999,0,0.00
2013-5-11,61.0,49.9,41.2,49.8,41.5,34.2,98,76,42,29.63,29.51,0,-999,0,0.00
2013-5-12,66.0,51.3,39.2,52.0,42.1,32.4,98,77,30,29.72,29.60,0,-999,0,0.00
2013-5-13,64.2,54.4,43.7,51.6,38.5,26.2,98,60,26,29.63,29.51,0,-999,0,0.00
2013-5-14,58.1,48.6,43.2,48.4,41.6,33.4,98,78,46,29.54,28.98,0,-999,0,0.00
2013-5-15,65.1,48.2,42.1,44.6,38.1,30.7,92,70,34,29.28,28.89,0,-999,0,0.00
2013-5-16,73.8,52.3,33.8,54.3,37.2,26.2,98,64,23,29.31,29.22,0,-999,0,0.00
2013-5-17,58.8,50.5,43.2,49.6,41.0,36.5,95,71,48,29.54,29.31,0,-999,0,0.00
2013-5-18,67.5,54.4,47.1,44.6,40.0,36.3,81,60,36,29.51,29.45,0,-999,0,0.00
2013-5-19,74.8,56.4,41.4,50.2,42.7,39.0,97,64,32,29.63,29.51,0,-999,0,0.00
2013-5-20,65.7,57.9,51.3,57.6,53.6,46.6,97,86,70,29.63,29.54,0,-999,0,0.00
2013-5-21,64.0,56.4,51.8,55.6,48.4,41.4,91,76,48,29.81,29.63,0,-999,0,0.00
2013-5-22,62.4,52.7,45.3,48.6,41.0,29.7,91,66,35,29.81,29.72,0,-999,0,0.00
2013-5-24,55.8,44.8,41.0,50.0,40.3,36.3,98,84,66,29.75,29.34,0,-999,0,0.00
2013-5-25,68.0,52.7,39.9,47.7,36.1,27.9,98,60,28,29.90,29.75,0,-999,0,0.00
2013-5-26,78.1,58.8,39.9,39.2,33.8,28.6,85,45,21,29.84,29.69,0,-999,0,0.00
2013-5-27,70.7,56.9,39.4,44.1,34.1,26.2,77,46,22,29.69,29.36,0,-999,0,0.00
2013-5-28,60.4,52.3,48.0,57.6,46.9,34.5,98,83,48,29.36,29.22,0,-999,0,0.00
2013-5-29,60.8,52.0,46.6,54.3,49.7,45.9,98,92,65,29.48,29.31,0,-999,0,0.00
2013-5-30,64.6,55.3,51.1,55.6,51.5,48.7,98,88,62,29.72,29.45,0,-999,0,0.00
2013-5-31,80.6,62.1,51.4,55.8,49.0,44.1,95,67,31,29.84,29.72,0,-999,0,0.00
2013-6-1,73.6,58.6,49.1,48.9,40.2,35.1,81,53,32,30.01,29.84,6,-797,6,0.00
2013-6-2,73.2,56.7,43.5,49.5,38.3,31.8,93,55,24,30.16,30.01,6,-895,6,0.00
2013-6-3,75.2,59.5,40.8,50.5,38.4,33.1,96,52,25,30.19,30.13,3,-986,6,0.00
2013-6-4,49.3,45.2,43.3,39.4,36.4,35.2,77,71,61,30.13,30.07,0,-972,0,0.00
2013-6-5,74.5,65.5,52.9,46.6,44.4,42.4,79,49,33,29.87,29.81,4,-586,4,0.00
2013-6-6,79.9,71.2,47.1,45.3,42.9,38.8,90,38,29,29.93,29.84,6,-566,7,0.00
2013-6-7,65.1,60.7,53.6,42.6,42.1,41.2,65,51,44,29.96,29.93,2,-285,5,0.00
2013-6-8,65.1,60.6,51.8,44.2,41.9,39.6,72,52,40,29.93,29.81,3,-498,6,0.00
2013-6-9,62.2,55.1,50.7,44.6,42.1,38.1,75,63,45,29.78,29.69,3,-499,6,0.00
2013-6-10,57.2,56.4,55.6,41.0,40.3,39.7,58,55,52,29.69,29.69,4,2,1,0.00
2013-6-11,63.1,59.2,49.1,56.8,52.9,43.5,83,80,77,29.66,29.60,6,-247,6,0.00
2013-6-12,66.2,59.2,57.9,60.6,57.8,50.0,98,95,56,29.60,29.51,6,-46,11,0.00
2013-6-13,68.4,58.8,52.3,57.2,49.0,39.4,98,72,40,29.75,29.48,12,4,15,0.00
2013-6-14,73.8,56.5,45.7,52.9,45.3,30.7,97,71,24,29.78,29.60,9,-28,11,0.00
2013-6-15,63.9,60.0,53.2,46.6,39.4,36.0,78,47,37,29.51,29.45,8,-464,10,0.00
2013-6-16,65.1,62.8,58.5,45.5,44.4,39.4,52,51,49,29.69,29.63,4,-776,2,0.00
2013-6-17,74.1,65.5,55.4,48.4,43.3,41.5,77,46,33,29.69,29.63,4,-959,6,0.00
2013-6-18,77.2,64.6,54.5,59.9,53.1,46.4,94,67,44,29.69,29.63,3,-790,3,0.00
2013-6-19,88.9,70.7,57.7,67.6,56.6,46.6,98,67,28,29.72,29.66,3,-840,3,0.00
2013-6-20,77.2,65.5,60.3,60.3,57.8,53.8,93,78,47,29.69,29.54,4,-846,4,0.00
2013-6-21,74.3,64.7,57.7,61.2,56.6,52.7,94,76,53,29.60,29.51,3,-888,4,0.00
2013-6-22,66.0,59.5,54.0,59.4,51.4,47.3,98,75,55,29.60,29.39,0,-999,0,0.00
2013-6-23,68.0,60.3,52.7,55.0,49.5,43.3,96,70,44,29.72,29.39,5,-980,5,0.00
2013-6-24,68.5,60.7,49.5,46.6,39.8,35.8,86,47,33,29.99,29.75,2,-990,4,0.00
2013-6-25,79.7,69.3,45.9,46.8,38.7,32.7,89,34,22,30.13,30.01,1,-991,1,0.00
2013-6-26,81.3,66.2,46.0,50.4,44.0,38.7,90,47,26,30.16,30.07,0,-999,0,0.00
2013-6-27,75.2,58.2,47.8,52.7,46.0,38.7,95,67,32,30.10,29.93,0,-999,0,0.00
2013-6-28,72.1,65.0,61.0,63.9,59.7,56.1,90,83,63,29.84,29.78,0,-999,0,0.00
2013-6-29,80.2,64.6,54.7,57.6,46.8,39.0,88,58,25,29.96,29.78,0,-999,0,0.00
2013-6-30,84.6,73.6,57.2,60.3,49.9,41.2,95,48,23,29.96,29.81,0,-999,0,0.00
2013-7-1,76.5,66.9,55.9,52.2,41.2,39.2,71,40,30,29.78,29.72,0,-999,0,0.00
2013-7-2,65.7,58.6,51.6,55.6,47.5,41.5,90,68,44,29.72,29.39,0,-999,0,0.00
2013-7-3,73.8,63.4,57.4,60.6,54.2,46.6,98,75,42,29.75,29.34,0,-999,0,0.00
2013-7-4,81.0,65.6,52.3,59.9,53.1,45.5,98,68,34,29.99,29.72,0,-999,0,0.00
2013-7-5,88.7,66.7,50.9,60.3,49.9,42.4,98,63,22,30.13,29.99,0,-999,0,0.00
2013-7-6,91.0,82.4,55.0,54.5,49.5,42.8,91,34,21,30.13,30.07,0,-999,0,0.00
2013-7-7,92.7,85.6,70.5,55.8,47.5,43.2,47,28,20,30.22,30.16,0,-999,0,0.00
2013-7-8,87.1,75.8,61.0,57.2,51.2,45.3,79,45,28,30.25,30.16,0,-999,0,0.00
2013-7-9,88.0,70.7,51.3,53.8,43.3,35.2,93,45,19,30.19,30.01,0,-999,0,0.00
2013-7-10,81.3,68.0,54.7,53.1,47.5,38.7,77,50,31,30.01,29.99,0,-999,0,0.00
2013-10-3,63.3,63.2,63.1,62.8,62.7,62.6,98,98,98,29.48,29.48,0,-999,0,0.00
2013-10-4,62.6,62.5,62.4,62.1,62.0,61.9,98,98,98,29.42,29.42,0,-999,0,0.00
2013-10-5,76.3,65.9,57.0,63.5,55.7,50.9,98,71,52,29.93,29.81,0,-999,0,0.00
2013-10-6,73.4,67.9,44.8,56.5,47.6,44.2,98,50,39,30.01,29.99,0,-999,0,0.00
2013-10-7,50.2,50.2,50.2,49.6,49.6,49.6,98,98,98,30.01,30.01,0,-999,0,0.00
2013-10-9,52.5,47.4,45.0,44.1,38.4,36.9,76,71,65,29.75,29.72,0,-999,0,0.00
2013-10-10,55.9,48.1,43.5,39.7,36.7,32.7,84,66,44,29.84,29.72,0,-999,0,0.00
2013-10-11,58.5,52.3,46.2,54.3,49.3,38.8,98,90,65,29.87,29.69,0,-999,0,0.00
2013-10-12,68.0,53.9,47.3,54.1,46.7,38.3,98,80,38,29.87,29.72,0,-999,0,0.00
2013-10-13,52.9,49.7,44.8,52.3,49.1,44.2,98,98,96,29.75,29.51,0,-999,0,0.00
2013-10-14,54.9,49.0,47.1,52.9,48.2,46.6,98,97,86,29.51,29.45,0,-999,0,0.00
2013-10-15,60.4,49.8,42.6,52.7,47.4,42.1,98,92,63,29.69,29.48,0,-999,0,0.00
2013-10-16,61.2,49.5,39.6,60.6,48.4,39.0,98,96,84,29.69,29.42,0,-999,0,0.00
2013-10-17,69.1,56.8,49.5,59.4,52.5,48.9,98,87,54,29.75,29.54,0,-999,0,0.00
2013-10-18,63.1,60.0,56.3,59.7,56.5,54.3,96,88,80,29.72,29.54,0,-999,0,0.00
2013-10-19,64.2,58.8,54.0,63.3,57.7,53.4,98,96,91,29.45,29.39,0,-999,0,0.00
2013-10-20,65.5,56.5,52.9,57.7,54.5,52.3,98,94,72,29.48,29.39,0,-999,0,0.00
2013-10-21,63.0,60.1,54.0,60.1,58.1,53.4,98,93,85,29.48,29.36,0,-999,0,0.00
2013-10-22,64.6,60.7,55.8,61.9,59.0,55.2,98,94,87,29.36,29.10,0,-999,0,0.00
2013-10-23,67.8,58.3,45.9,58.5,52.7,39.9,98,84,45,29.57,29.01,0,-999,0,0.00
2013-10-24,65.1,54.2,38.3,55.0,52.9,37.8,98,96,59,29.69,29.57,0,-999,0,0.00
2013-10-25,68.4,59.9,55.0,64.9,56.7,54.5,98,90,71,29.57,29.34,0,-999,0,0.00
2013-10-26,63.1,58.7,56.5,59.4,56.5,54.0,98,93,76,29.45,29.25,0,-999,0,0.00
2013-10-27,64.2,56.2,50.4,57.0,50.5,43.0,98,83,48,29.25,29.01,0,-999,0,0.00
2013-10-28,59.7,53.1,46.0,59.2,49.6,42.6,98,88,59,29.34,28.66,0,-999,0,0.00
2013-10-29,60.3,46.9,37.4,49.3,41.3,34.5,98,83,47,29.78,29.34,0,-999,0,0.00
2013-10-30,61.5,48.5,34.0,54.9,43.9,33.4,98,86,48,29.90,29.78,0,-999,0,0.00
2013-10-31,56.5,54.2,52.3,55.4,52.9,50.4,98,95,86,29.81,29.66,0,-999,0,0.00
2013-11-1,57.6,53.8,51.1,55.8,52.8,50.5,98,96,83,29.66,29.31,0,-999,0,0.00
2013-11-2,61.9,52.7,48.6,55.8,47.4,39.2,98,83,61,29.34,29.13,0,-999,0,0.00
2013-11-3,58.3,48.1,43.3,44.8,39.8,34.2,98,74,45,29.34,28.83,0,-999,0,0.00
2013-11-4,55.6,44.4,37.4,45.0,39.1,32.9,98,84,44,29.25,28.77,0,-999,0,0.00
2013-11-5,56.8,46.1,35.1,53.4,43.0,34.5,98,90,69,29.25,29.01,0,-999,0,0.00
2013-11-6,58.5,53.1,47.7,57.4,52.1,43.2,98,96,84,29.31,29.22,0,-999,0,0.00
2013-11-7,57.4,48.5,40.6,56.8,45.8,39.4,98,91,67,29.51,29.28,0,-999,0,0.00
2013-11-8,54.1,42.6,34.5,53.6,42.1,34.0,98,98,98,29.51,29.34,0,-999,0,0.00
2013-11-9,48.0,40.5,32.9,47.5,39.9,32.4,98,98,98,29.51,29.36,0,-999,0,0.00
2013-11-10,54.1,41.1,31.8,42.4,35.9,29.3,98,85,45,29.99,29.36,0,-999,0,0.00
2013-11-11,54.7,47.9,32.2,54.1,47.3,31.6,98,98,98,29.99,29.87,0,-999,0,0.00
2013-11-12,59.5,49.3,36.9,56.8,47.4,36.3,98,94,70,30.22,29.87,0,-999,0,0.00
2013-11-13,54.5,41.2,32.7,52.3,38.7,32.2,98,91,69,30.28,30.01,0,-999,0,0.00
2013-11-14,46.4,41.0,38.8,44.4,39.1,37.6,98,93,89,30.10,29.84,0,-999,0,0.00
2013-11-15,48.6,35.4,32.7,35.8,34.1,32.2,98,95,59,30.25,30.16,0,-999,0,0.00
2013-11-16,55.6,41.4,29.3,51.3,40.4,28.8,98,96,79,30.25,30.10,0,-999,0,0.00
2013-11-17,50.2,47.2,44.1,49.5,46.6,43.5,98,98,95,30.10,29.75,0,-999,0,0.00
2013-11-18,50.2,46.6,41.9,49.6,46.1,41.4,98,98,97,29.75,29.51,0,-999,0,0.00
2013-11-19,48.0,36.7,27.5,41.7,31.7,24.3,98,84,48,29.81,29.54,0,-999,0,0.00
2013-11-20,42.4,33.3,26.6,41.9,32.7,26.1,98,98,95,29.78,29.16,0,-999,0,0.00
2013-11-21,40.6,39.1,37.0,40.1,38.6,36.5,98,98,98,29.31,29.19,0,-999,0,0.00
2013-11-24,47.8,43.4,37.9,45.7,40.9,36.3,98,91,81,30.28,30.10,7,2,13,0.00
2013-11-25,48.2,41.2,37.6,41.0,38.1,36.1,98,89,72,30.40,30.28,5,1,8,0.00
2013-11-26,50.0,40.6,31.8,43.9,35.0,30.9,98,81,54,30.40,30.28,5,-6,6,0.00
2013-11-27,51.6,44.6,41.5,51.1,43.8,39.9,98,97,92,30.28,30.19,3,-6,4,0.00
2013-11-28,50.7,47.4,45.7,48.9,46.5,45.1,98,97,91,30.28,30.22,4,-5,4,0.00
2013-11-29,51.6,46.0,41.5,46.0,42.2,37.2,98,87,70,30.22,29.90,9,-2,11,0.00
2013-11-30,50.4,42.1,34.2,43.2,36.9,32.5,98,82,69,30.19,29.90,7,2,12,0.00
2013-12-1,45.7,36.7,30.9,45.0,36.2,30.4,98,98,97,30.22,30.13,3,0,3,0.00
2013-12-7,47.3,45.9,45.0,45.3,44.5,43.3,98,95,93,30.04,29.99,4,2,4,0.00
2013-12-8,54.1,47.8,43.3,47.5,45.3,42.8,98,91,73,30.01,29.96,7,-82,8,0.00
2013-12-9,54.9,43.8,36.9,52.7,42.6,36.3,98,96,77,30.13,30.01,6,-45,8,0.00
2013-12-10,50.0,39.1,30.6,49.5,38.6,30.0,98,98,95,30.19,30.10,4,-11,5,0.00
2013-12-11,42.6,34.8,30.6,42.1,34.3,30.0,98,98,98,30.16,30.01,2,-45,3,0.00
2013-12-12,46.6,38.3,28.0,46.0,37.8,27.5,98,98,98,30.01,29.90,4,-166,6,0.00
2013-12-13,53.6,49.3,44.1,51.3,48.2,43.5,98,96,82,29.90,29.75,6,-33,9,0.00
2013-12-14,51.8,45.3,34.9,49.6,43.6,34.3,98,94,76,30.01,29.78,13,-1,15,0.00
2013-12-15,53.6,51.0,44.2,53.1,50.5,43.7,98,98,98,29.87,29.72,13,4,13,0.00
2013-12-16,55.6,51.6,43.0,55.0,51.1,42.4,98,98,98,29.84,29.66,12,3,14,0.00
2013-12-17,44.4,41.7,38.7,43.9,41.1,38.1,98,98,98,29.99,29.69,4,-3,5,0.00
2013-12-18,50.7,46.3,40.3,49.8,45.5,39.7,98,97,92,29.72,29.04,16,0,20,0.00
2013-12-19,50.7,42.3,35.8,47.1,39.0,31.6,98,89,53,29.57,29.07,8,2,14,0.00
2013-12-20,51.1,42.5,32.7,47.8,39.9,32.2,98,91,70,29.90,29.57,13,3,17,0.00
2013-12-21,52.7,50.4,46.2,51.8,49.3,43.0,98,96,82,29.78,29.42,13,5,16,0.00
2013-12-22,53.4,45.4,38.1,46.0,41.0,34.5,98,85,59,29.63,29.42,12,-1,17,0.00
2013-12-23,52.9,49.7,37.9,52.3,49.0,36.9,98,97,91,29.63,28.63,17,6,19,0.00
2013-12-24,52.3,45.8,40.6,51.8,43.9,38.8,98,93,76,28.74,28.57,16,4,23,0.00
2013-12-25,50.2,39.1,35.2,45.1,37.6,34.7,98,95,68,28.92,28.69,6,-10,8,0.00
2013-12-26,45.0,38.9,35.8,44.1,38.2,35.2,98,98,83,29.25,28.92,11,-18,11,0.00
2013-12-27,50.9,47.3,42.6,50.4,41.8,35.2,98,82,61,29.01,28.74,17,-4,17,0.00
2013-12-28,50.9,38.8,30.6,44.1,35.1,30.0,98,88,54,29.42,29.01,6,-30,7,0.00
2013-12-29,45.3,39.6,31.1,44.6,39.0,30.6,98,98,96,29.81,29.42,6,-63,6,0.00
2013-12-30,52.3,46.8,41.5,50.4,45.4,41.0,98,95,73,29.72,29.39,14,4,17,0.00
2013-12-31,51.1,45.3,40.6,49.1,44.5,40.1,98,97,90,29.57,29.28,9,-1,14,0.00
2014-1-1,51.3,47.3,42.1,50.7,46.7,41.5,98,98,90,29.31,28.80,13,4,15,0.00
2014-1-2,53.1,47.3,40.8,49.6,45.1,40.3,98,93,69,29.22,28.83,10,3,12,0.00